Terminal Aerodrome Forecast
Issued by NWS

Home | Current Version | Previous Version | Graphics & Text | Print | Product List | Glossary On
Versions: 1 2 3 4 5 6 7 8 9 10 11 12 13 14 15 16 17 18
334
FTUS43 KBIS 211727 AAC
TAFDIK
TAF AMD
KDIK 211727Z 2117/2218 15026G35KT P6SM SCT025 BKN250
     FM220700 16019G27KT P6SM VCTS BKN015CB
     FM221200 16012KT P6SM BKN010
     FM221500 19010KT P6SM SCT010=

USA.gov is the U.S. government's official web portal to all federal, state and local government web resources and services.